<?xml version="1.0" encoding="UTF-8" standalone="no" ?>
<gpx xmlns="http://www.topografix.com/GPX/1/1" creator="MapSource 6.15.3" version="1.1" xmlns:xsi="http://www.w3.org/2001/XMLSchema-instance" xsi:schemaLocation="http://www.topografix.com/GPX/1/1 http://www.topografix.com/GPX/1/1/gpx.xsd">

  <metadata>
    <link href="http://www.garmin.com">
      <text>Garmin International</text>
    </link>
    <time>2009-02-17T08:44:14Z</time>
    <bounds maxlat="28.5145720" maxlon="-17.8311200" minlat="28.4552770" minlon="-17.8757080"/>
  </metadata>

  <wpt lat="28.4872484" lon="-17.8477836">
    <ele>0.0000000</ele>
    <name>Besucherzentrum Vulcan San Antonio</name>
    <sym>Waypoint</sym>
    <extensions>
      <gpxx:WaypointExtension xmlns:gpxx="http://www.garmin.com/xmlschemas/GpxExtensions/v3">
        <gpxx:DisplayMode>SymbolAndName</gpxx:DisplayMode>
      </gpxx:WaypointExtension>
    </extensions>
  </wpt>

  <wpt lat="28.4553347" lon="-17.8433847">
    <ele>0.0000000</ele>
    <name>Faro Fuencaliente</name>
    <sym>Waypoint</sym>
    <extensions>
      <gpxx:WaypointExtension xmlns:gpxx="http://www.garmin.com/xmlschemas/GpxExtensions/v3">
        <gpxx:DisplayMode>SymbolAndName</gpxx:DisplayMode>
      </gpxx:WaypointExtension>
    </extensions>
  </wpt>

  <wpt lat="28.4748888" lon="-17.8516030">
    <ele>378.0000000</ele>
    <name>Kraterblick Teneguida</name>
    <sym>Waypoint</sym>
    <extensions>
      <gpxx:WaypointExtension xmlns:gpxx="http://www.garmin.com/xmlschemas/GpxExtensions/v3">
        <gpxx:DisplayMode>SymbolAndName</gpxx:DisplayMode>
      </gpxx:WaypointExtension>
    </extensions>
  </wpt>

  <trk>
    <name>Vulkane im Süden</name>
    <extensions>
      <gpxx:TrackExtension xmlns:gpxx="http://www.garmin.com/xmlschemas/GpxExtensions/v3">
        <gpxx:DisplayColor>Yellow</gpxx:DisplayColor>
      </gpxx:TrackExtension>
    </extensions>
    <trkseg>
      <trkpt lat="28.5144070" lon="-17.8753170">
        <ele>28.0000000</ele>
        <time>2009-02-09T12:27:49Z</time>
      </trkpt>
      <trkpt lat="28.5144300" lon="-17.8750500">
        <ele>29.0000000</ele>
        <time>2009-02-09T12:27:58Z</time>
      </trkpt>
      <trkpt lat="28.5143230" lon="-17.8747630">
        <ele>32.0000000</ele>
        <time>2009-02-09T12:28:09Z</time>
      </trkpt>
      <trkpt lat="28.5143750" lon="-17.8743370">
        <ele>39.0000000</ele>
        <time>2009-02-09T12:28:24Z</time>
      </trkpt>
      <trkpt lat="28.5144930" lon="-17.8732450">
        <ele>55.0000000</ele>
        <time>2009-02-09T12:29:02Z</time>
      </trkpt>
      <trkpt lat="28.5081770" lon="-17.8720300">
        <ele>89.0000000</ele>
        <time>2009-02-09T12:33:22Z</time>
      </trkpt>
      <trkpt lat="28.5073300" lon="-17.8719270">
        <ele>92.0000000</ele>
        <time>2009-02-09T12:33:55Z</time>
      </trkpt>
      <trkpt lat="28.5072980" lon="-17.8719330">
        <ele>93.0000000</ele>
        <time>2009-02-09T12:33:56Z</time>
      </trkpt>
      <trkpt lat="28.5068500" lon="-17.8721080">
        <ele>94.0000000</ele>
        <time>2009-02-09T12:34:15Z</time>
      </trkpt>
      <trkpt lat="28.5046880" lon="-17.8705980">
        <ele>91.0000000</ele>
        <time>2009-02-09T12:36:03Z</time>
      </trkpt>
      <trkpt lat="28.5038380" lon="-17.8707430">
        <ele>78.0000000</ele>
        <time>2009-02-09T12:36:37Z</time>
      </trkpt>
      <trkpt lat="28.5020600" lon="-17.8695300">
        <ele>67.0000000</ele>
        <time>2009-02-09T12:38:16Z</time>
      </trkpt>
      <trkpt lat="28.5013420" lon="-17.8697550">
        <ele>63.0000000</ele>
        <time>2009-02-09T12:38:45Z</time>
      </trkpt>
      <trkpt lat="28.4997270" lon="-17.8711070">
        <ele>60.0000000</ele>
        <time>2009-02-09T12:40:08Z</time>
      </trkpt>
      <trkpt lat="28.4974330" lon="-17.8709800">
        <ele>53.0000000</ele>
        <time>2009-02-09T12:41:37Z</time>
      </trkpt>
      <trkpt lat="28.4933200" lon="-17.8698150">
        <ele>38.0000000</ele>
        <time>2009-02-09T12:44:22Z</time>
      </trkpt>
      <trkpt lat="28.4923650" lon="-17.8709880">
        <ele>39.0000000</ele>
        <time>2009-02-09T12:45:19Z</time>
      </trkpt>
      <trkpt lat="28.4869520" lon="-17.8687720">
        <ele>26.0000000</ele>
        <time>2009-02-09T12:49:04Z</time>
      </trkpt>
      <trkpt lat="28.4863930" lon="-17.8688620">
        <ele>25.0000000</ele>
        <time>2009-02-09T12:49:26Z</time>
      </trkpt>
      <trkpt lat="28.4812280" lon="-17.8660520">
        <ele>26.0000000</ele>
        <time>2009-02-09T12:53:09Z</time>
      </trkpt>
      <trkpt lat="28.4737100" lon="-17.8639530">
        <ele>36.0000000</ele>
        <time>2009-02-09T12:58:09Z</time>
      </trkpt>
      <trkpt lat="28.4709070" lon="-17.8628730">
        <ele>35.0000000</ele>
        <time>2009-02-09T13:00:04Z</time>
      </trkpt>
      <trkpt lat="28.4607370" lon="-17.8514000">
        <ele>34.0000000</ele>
        <time>2009-02-09T13:09:21Z</time>
      </trkpt>
      <trkpt lat="28.4606030" lon="-17.8497730">
        <ele>37.0000000</ele>
        <time>2009-02-09T13:10:18Z</time>
      </trkpt>
      <trkpt lat="28.4569120" lon="-17.8457170">
        <ele>56.0000000</ele>
        <time>2009-02-09T13:13:42Z</time>
      </trkpt>
      <trkpt lat="28.4579370" lon="-17.8432700">
        <ele>73.0000000</ele>
        <time>2009-02-09T13:15:19Z</time>
      </trkpt>
      <trkpt lat="28.4585600" lon="-17.8409250">
        <ele>52.0000000</ele>
        <time>2009-02-09T13:16:46Z</time>
      </trkpt>
      <trkpt lat="28.4581070" lon="-17.8404100">
        <ele>48.0000000</ele>
        <time>2009-02-09T13:17:14Z</time>
      </trkpt>
      <trkpt lat="28.4578420" lon="-17.8404830">
        <ele>46.0000000</ele>
        <time>2009-02-09T13:17:24Z</time>
      </trkpt>
      <trkpt lat="28.4557320" lon="-17.8431220">
        <ele>28.0000000</ele>
        <time>2009-02-09T13:19:30Z</time>
      </trkpt>
      <trkpt lat="28.4552770" lon="-17.8432250">
        <ele>26.0000000</ele>
        <time>2009-02-09T13:19:48Z</time>
      </trkpt>
      <trkpt lat="28.4556850" lon="-17.8431200">
        <ele>28.0000000</ele>
        <time>2009-02-09T13:20:14Z</time>
      </trkpt>
      <trkpt lat="28.4595700" lon="-17.8385950">
        <ele>48.0000000</ele>
        <time>2009-02-09T13:24:00Z</time>
      </trkpt>
      <trkpt lat="28.4600730" lon="-17.8382330">
        <ele>55.0000000</ele>
        <time>2009-02-09T13:24:27Z</time>
      </trkpt>
      <trkpt lat="28.4605270" lon="-17.8384980">
        <ele>60.0000000</ele>
        <time>2009-02-09T13:24:47Z</time>
      </trkpt>
      <trkpt lat="28.4622050" lon="-17.8380380">
        <ele>72.0000000</ele>
        <time>2009-02-09T13:26:04Z</time>
      </trkpt>
      <trkpt lat="28.4624520" lon="-17.8382030">
        <ele>76.0000000</ele>
        <time>2009-02-09T13:26:15Z</time>
      </trkpt>
      <trkpt lat="28.4627900" lon="-17.8381780">
        <ele>80.0000000</ele>
        <time>2009-02-09T13:26:28Z</time>
      </trkpt>
      <trkpt lat="28.4660120" lon="-17.8361980">
        <ele>126.0000000</ele>
        <time>2009-02-09T13:28:52Z</time>
      </trkpt>
      <trkpt lat="28.4662650" lon="-17.8358630">
        <ele>132.0000000</ele>
        <time>2009-02-09T13:29:07Z</time>
      </trkpt>
      <trkpt lat="28.4667870" lon="-17.8356820">
        <ele>139.0000000</ele>
        <time>2009-02-09T13:29:29Z</time>
      </trkpt>
      <trkpt lat="28.4699120" lon="-17.8342950">
        <ele>169.0000000</ele>
        <time>2009-02-09T13:31:41Z</time>
      </trkpt>
      <trkpt lat="28.4719350" lon="-17.8320120">
        <ele>197.0000000</ele>
        <time>2009-02-09T13:33:32Z</time>
      </trkpt>
      <trkpt lat="28.4748620" lon="-17.8311200">
        <ele>205.0000000</ele>
        <time>2009-02-09T13:35:34Z</time>
      </trkpt>
      <trkpt lat="28.4750280" lon="-17.8314450">
        <ele>207.0000000</ele>
        <time>2009-02-09T13:35:48Z</time>
      </trkpt>
      <trkpt lat="28.4743870" lon="-17.8321720">
        <ele>212.0000000</ele>
        <time>2009-02-09T13:36:24Z</time>
      </trkpt>
      <trkpt lat="28.4743770" lon="-17.8321950">
        <ele>212.0000000</ele>
        <time>2009-02-09T13:36:25Z</time>
      </trkpt>
      <trkpt lat="28.4743600" lon="-17.8322470">
        <ele>212.0000000</ele>
        <time>2009-02-09T13:36:27Z</time>
      </trkpt>
      <trkpt lat="28.4734020" lon="-17.8332350">
        <ele>218.0000000</ele>
        <time>2009-02-09T13:37:18Z</time>
      </trkpt>
      <trkpt lat="28.4733000" lon="-17.8334900">
        <ele>219.0000000</ele>
        <time>2009-02-09T13:37:28Z</time>
      </trkpt>
      <trkpt lat="28.4727500" lon="-17.8338930">
        <ele>221.0000000</ele>
        <time>2009-02-09T13:37:53Z</time>
      </trkpt>
      <trkpt lat="28.4715820" lon="-17.8362400">
        <ele>242.0000000</ele>
        <time>2009-02-09T13:39:27Z</time>
      </trkpt>
      <trkpt lat="28.4717700" lon="-17.8368930">
        <ele>251.0000000</ele>
        <time>2009-02-09T13:39:52Z</time>
      </trkpt>
      <trkpt lat="28.4737850" lon="-17.8357700">
        <ele>273.0000000</ele>
        <time>2009-02-09T13:41:23Z</time>
      </trkpt>
      <trkpt lat="28.4732530" lon="-17.8390400">
        <ele>296.0000000</ele>
        <time>2009-02-09T13:43:18Z</time>
      </trkpt>
      <trkpt lat="28.4758530" lon="-17.8364570">
        <ele>321.0000000</ele>
        <time>2009-02-09T13:45:35Z</time>
      </trkpt>
      <trkpt lat="28.4774130" lon="-17.8360330">
        <ele>332.0000000</ele>
        <time>2009-02-09T13:46:37Z</time>
      </trkpt>
      <trkpt lat="28.4792170" lon="-17.8344100">
        <ele>350.0000000</ele>
        <time>2009-02-09T13:48:08Z</time>
      </trkpt>
      <trkpt lat="28.4800650" lon="-17.8338480">
        <ele>361.0000000</ele>
        <time>2009-02-09T13:48:51Z</time>
      </trkpt>
      <trkpt lat="28.4800780" lon="-17.8338480">
        <ele>361.0000000</ele>
        <time>2009-02-09T13:48:51Z</time>
      </trkpt>
      <trkpt lat="28.4795670" lon="-17.8342980">
        <ele>367.0000000</ele>
        <time>2009-02-09T13:49:20Z</time>
      </trkpt>
      <trkpt lat="28.4795250" lon="-17.8349700">
        <ele>373.0000000</ele>
        <time>2009-02-09T13:49:47Z</time>
      </trkpt>
      <trkpt lat="28.4791150" lon="-17.8362850">
        <ele>373.0000000</ele>
        <time>2009-02-09T13:50:36Z</time>
      </trkpt>
      <trkpt lat="28.4791150" lon="-17.8363050">
        <ele>373.0000000</ele>
        <time>2009-02-09T13:50:37Z</time>
      </trkpt>
      <trkpt lat="28.4795480" lon="-17.8365970">
        <ele>381.0000000</ele>
        <time>2009-02-09T13:50:58Z</time>
      </trkpt>
      <trkpt lat="28.4795320" lon="-17.8369380">
        <ele>383.0000000</ele>
        <time>2009-02-09T13:51:09Z</time>
      </trkpt>
      <trkpt lat="28.4788620" lon="-17.8377520">
        <ele>389.0000000</ele>
        <time>2009-02-09T13:51:48Z</time>
      </trkpt>
      <trkpt lat="28.4784970" lon="-17.8403300">
        <ele>405.0000000</ele>
        <time>2009-02-09T13:53:19Z</time>
      </trkpt>
      <trkpt lat="28.4780030" lon="-17.8444870">
        <ele>422.0000000</ele>
        <time>2009-02-09T13:55:43Z</time>
      </trkpt>
      <trkpt lat="28.4785930" lon="-17.8461620">
        <ele>425.0000000</ele>
        <time>2009-02-09T13:56:46Z</time>
      </trkpt>
      <trkpt lat="28.4776900" lon="-17.8483050">
        <ele>410.0000000</ele>
        <time>2009-02-09T13:58:07Z</time>
      </trkpt>
      <trkpt lat="28.4776570" lon="-17.8487350">
        <ele>407.0000000</ele>
        <time>2009-02-09T13:58:22Z</time>
      </trkpt>
      <trkpt lat="28.4779280" lon="-17.8493720">
        <ele>405.0000000</ele>
        <time>2009-02-09T13:58:47Z</time>
      </trkpt>
      <trkpt lat="28.4779800" lon="-17.8495780">
        <ele>404.0000000</ele>
        <time>2009-02-09T13:58:54Z</time>
      </trkpt>
      <trkpt lat="28.4777580" lon="-17.8502230">
        <ele>403.0000000</ele>
        <time>2009-02-09T13:59:19Z</time>
      </trkpt>
      <trkpt lat="28.4763200" lon="-17.8524720">
        <ele>390.0000000</ele>
        <time>2009-02-09T14:00:56Z</time>
      </trkpt>
      <trkpt lat="28.4755800" lon="-17.8517280">
        <ele>389.0000000</ele>
        <time>2009-02-09T14:01:37Z</time>
      </trkpt>
      <trkpt lat="28.4749530" lon="-17.8516700">
        <ele>390.0000000</ele>
        <time>2009-02-09T14:02:08Z</time>
      </trkpt>
      <trkpt lat="28.4754720" lon="-17.8516650">
        <ele>391.0000000</ele>
        <time>2009-02-09T14:02:29Z</time>
      </trkpt>
      <trkpt lat="28.4762820" lon="-17.8524780">
        <ele>393.0000000</ele>
        <time>2009-02-09T14:03:13Z</time>
      </trkpt>
      <trkpt lat="28.4780080" lon="-17.8498000">
        <ele>403.0000000</ele>
        <time>2009-02-09T14:05:14Z</time>
      </trkpt>
      <trkpt lat="28.4779750" lon="-17.8494430">
        <ele>404.0000000</ele>
        <time>2009-02-09T14:05:26Z</time>
      </trkpt>
      <trkpt lat="28.4779320" lon="-17.8492750">
        <ele>405.0000000</ele>
        <time>2009-02-09T14:05:32Z</time>
      </trkpt>
      <trkpt lat="28.4777280" lon="-17.8488170">
        <ele>407.0000000</ele>
        <time>2009-02-09T14:05:50Z</time>
      </trkpt>
      <trkpt lat="28.4776770" lon="-17.8483350">
        <ele>411.0000000</ele>
        <time>2009-02-09T14:06:11Z</time>
      </trkpt>
      <trkpt lat="28.4786770" lon="-17.8461950">
        <ele>428.0000000</ele>
        <time>2009-02-09T14:07:35Z</time>
      </trkpt>
      <trkpt lat="28.4787720" lon="-17.8466620">
        <ele>430.0000000</ele>
        <time>2009-02-09T14:07:52Z</time>
      </trkpt>
      <trkpt lat="28.4784770" lon="-17.8478530">
        <ele>437.0000000</ele>
        <time>2009-02-09T14:08:35Z</time>
      </trkpt>
      <trkpt lat="28.4790020" lon="-17.8501850">
        <ele>454.0000000</ele>
        <time>2009-02-09T14:09:57Z</time>
      </trkpt>
      <trkpt lat="28.4793530" lon="-17.8511520">
        <ele>459.0000000</ele>
        <time>2009-02-09T14:10:33Z</time>
      </trkpt>
      <trkpt lat="28.4806030" lon="-17.8531380">
        <ele>474.0000000</ele>
        <time>2009-02-09T14:11:57Z</time>
      </trkpt>
      <trkpt lat="28.4825180" lon="-17.8539070">
        <ele>491.0000000</ele>
        <time>2009-02-09T14:13:18Z</time>
      </trkpt>
      <trkpt lat="28.4845900" lon="-17.8537250">
        <ele>505.0000000</ele>
        <time>2009-02-09T14:14:39Z</time>
      </trkpt>
      <trkpt lat="28.4862520" lon="-17.8527700">
        <ele>516.0000000</ele>
        <time>2009-02-09T14:15:52Z</time>
      </trkpt>
      <trkpt lat="28.4877070" lon="-17.8527150">
        <ele>514.0000000</ele>
        <time>2009-02-09T14:16:49Z</time>
      </trkpt>
      <trkpt lat="28.4903070" lon="-17.8535130">
        <ele>511.0000000</ele>
        <time>2009-02-09T14:18:36Z</time>
      </trkpt>
      <trkpt lat="28.4927820" lon="-17.8545170">
        <ele>522.0000000</ele>
        <time>2009-02-09T14:20:23Z</time>
      </trkpt>
      <trkpt lat="28.4932520" lon="-17.8550750">
        <ele>527.0000000</ele>
        <time>2009-02-09T14:20:50Z</time>
      </trkpt>
      <trkpt lat="28.4941080" lon="-17.8552800">
        <ele>536.0000000</ele>
        <time>2009-02-09T14:21:25Z</time>
      </trkpt>
      <trkpt lat="28.4948120" lon="-17.8558500">
        <ele>543.0000000</ele>
        <time>2009-02-09T14:22:00Z</time>
      </trkpt>
      <trkpt lat="28.4958020" lon="-17.8559050">
        <ele>556.0000000</ele>
        <time>2009-02-09T14:22:39Z</time>
      </trkpt>
      <trkpt lat="28.4971420" lon="-17.8562100">
        <ele>572.0000000</ele>
        <time>2009-02-09T14:23:35Z</time>
      </trkpt>
      <trkpt lat="28.4954380" lon="-17.8551600">
        <ele>590.0000000</ele>
        <time>2009-02-09T14:24:51Z</time>
      </trkpt>
      <trkpt lat="28.4934870" lon="-17.8520970">
        <ele>618.0000000</ele>
        <time>2009-02-09T14:27:02Z</time>
      </trkpt>
      <trkpt lat="28.4921670" lon="-17.8515200">
        <ele>632.0000000</ele>
        <time>2009-02-09T14:27:58Z</time>
      </trkpt>
      <trkpt lat="28.4910930" lon="-17.8506220">
        <ele>640.0000000</ele>
        <time>2009-02-09T14:28:51Z</time>
      </trkpt>
      <trkpt lat="28.4894980" lon="-17.8474870">
        <ele>662.0000000</ele>
        <time>2009-02-09T14:30:56Z</time>
      </trkpt>
      <trkpt lat="28.4877880" lon="-17.8478980">
        <ele>657.0000000</ele>
        <time>2009-02-09T14:32:03Z</time>
      </trkpt>
      <trkpt lat="28.4874170" lon="-17.8478100">
        <ele>654.0000000</ele>
        <time>2009-02-09T14:32:18Z</time>
      </trkpt>
      <trkpt lat="28.4873120" lon="-17.8477430">
        <ele>654.0000000</ele>
        <time>2009-02-09T14:32:25Z</time>
      </trkpt>
      <trkpt lat="28.4878370" lon="-17.8478550">
        <ele>658.0000000</ele>
        <time>2009-02-09T14:32:46Z</time>
      </trkpt>
      <trkpt lat="28.4895070" lon="-17.8475020">
        <ele>661.0000000</ele>
        <time>2009-02-09T14:33:52Z</time>
      </trkpt>
      <trkpt lat="28.4911850" lon="-17.8506480">
        <ele>637.0000000</ele>
        <time>2009-02-09T14:36:02Z</time>
      </trkpt>
      <trkpt lat="28.4921170" lon="-17.8514280">
        <ele>630.0000000</ele>
        <time>2009-02-09T14:36:47Z</time>
      </trkpt>
      <trkpt lat="28.4934330" lon="-17.8520280">
        <ele>619.0000000</ele>
        <time>2009-02-09T14:37:43Z</time>
      </trkpt>
      <trkpt lat="28.4945850" lon="-17.8539870">
        <ele>601.0000000</ele>
        <time>2009-02-09T14:39:04Z</time>
      </trkpt>
      <trkpt lat="28.4953420" lon="-17.8550530">
        <ele>591.0000000</ele>
        <time>2009-02-09T14:39:51Z</time>
      </trkpt>
      <trkpt lat="28.4970780" lon="-17.8561030">
        <ele>571.0000000</ele>
        <time>2009-02-09T14:41:08Z</time>
      </trkpt>
      <trkpt lat="28.4992130" lon="-17.8572200">
        <ele>554.0000000</ele>
        <time>2009-02-09T14:42:40Z</time>
      </trkpt>
      <trkpt lat="28.5004020" lon="-17.8569630">
        <ele>550.0000000</ele>
        <time>2009-02-09T14:43:27Z</time>
      </trkpt>
      <trkpt lat="28.5025970" lon="-17.8574280">
        <ele>543.0000000</ele>
        <time>2009-02-09T14:44:54Z</time>
      </trkpt>
      <trkpt lat="28.5040600" lon="-17.8591480">
        <ele>525.0000000</ele>
        <time>2009-02-09T14:46:17Z</time>
      </trkpt>
      <trkpt lat="28.5046850" lon="-17.8596050">
        <ele>519.0000000</ele>
        <time>2009-02-09T14:46:48Z</time>
      </trkpt>
      <trkpt lat="28.5042270" lon="-17.8595000">
        <ele>517.0000000</ele>
        <time>2009-02-09T14:47:08Z</time>
      </trkpt>
      <trkpt lat="28.5031050" lon="-17.8589800">
        <ele>508.0000000</ele>
        <time>2009-02-09T14:47:55Z</time>
      </trkpt>
      <trkpt lat="28.5017520" lon="-17.8586330">
        <ele>495.0000000</ele>
        <time>2009-02-09T14:48:49Z</time>
      </trkpt>
      <trkpt lat="28.4996770" lon="-17.8586520">
        <ele>477.0000000</ele>
        <time>2009-02-09T14:50:10Z</time>
      </trkpt>
      <trkpt lat="28.4992520" lon="-17.8589880">
        <ele>471.0000000</ele>
        <time>2009-02-09T14:50:33Z</time>
      </trkpt>
      <trkpt lat="28.4998950" lon="-17.8589800">
        <ele>466.0000000</ele>
        <time>2009-02-09T14:50:59Z</time>
      </trkpt>
      <trkpt lat="28.5019180" lon="-17.8609180">
        <ele>443.0000000</ele>
        <time>2009-02-09T14:52:42Z</time>
      </trkpt>
      <trkpt lat="28.5034650" lon="-17.8618850">
        <ele>430.0000000</ele>
        <time>2009-02-09T14:53:51Z</time>
      </trkpt>
      <trkpt lat="28.5040350" lon="-17.8626200">
        <ele>423.0000000</ele>
        <time>2009-02-09T14:54:24Z</time>
      </trkpt>
      <trkpt lat="28.5062330" lon="-17.8633750">
        <ele>405.0000000</ele>
        <time>2009-02-09T14:55:54Z</time>
      </trkpt>
      <trkpt lat="28.5061680" lon="-17.8637000">
        <ele>402.0000000</ele>
        <time>2009-02-09T14:56:08Z</time>
      </trkpt>
      <trkpt lat="28.5054800" lon="-17.8636070">
        <ele>396.0000000</ele>
        <time>2009-02-09T14:56:36Z</time>
      </trkpt>
      <trkpt lat="28.5049600" lon="-17.8638180">
        <ele>392.0000000</ele>
        <time>2009-02-09T14:56:57Z</time>
      </trkpt>
      <trkpt lat="28.5044670" lon="-17.8637950">
        <ele>389.0000000</ele>
        <time>2009-02-09T14:57:16Z</time>
      </trkpt>
      <trkpt lat="28.5037770" lon="-17.8639800">
        <ele>384.0000000</ele>
        <time>2009-02-09T14:57:44Z</time>
      </trkpt>
      <trkpt lat="28.5036720" lon="-17.8639700">
        <ele>383.0000000</ele>
        <time>2009-02-09T14:57:48Z</time>
      </trkpt>
      <trkpt lat="28.5022820" lon="-17.8637620">
        <ele>373.0000000</ele>
        <time>2009-02-09T14:58:43Z</time>
      </trkpt>
      <trkpt lat="28.5014650" lon="-17.8633130">
        <ele>366.0000000</ele>
        <time>2009-02-09T14:59:18Z</time>
      </trkpt>
      <trkpt lat="28.5013070" lon="-17.8635770">
        <ele>363.0000000</ele>
        <time>2009-02-09T14:59:30Z</time>
      </trkpt>
      <trkpt lat="28.5028120" lon="-17.8648830">
        <ele>349.0000000</ele>
        <time>2009-02-09T15:00:45Z</time>
      </trkpt>
      <trkpt lat="28.5041120" lon="-17.8651770">
        <ele>341.0000000</ele>
        <time>2009-02-09T15:01:36Z</time>
      </trkpt>
      <trkpt lat="28.5055420" lon="-17.8658450">
        <ele>330.0000000</ele>
        <time>2009-02-09T15:02:37Z</time>
      </trkpt>
      <trkpt lat="28.5063300" lon="-17.8659150">
        <ele>325.0000000</ele>
        <time>2009-02-09T15:03:07Z</time>
      </trkpt>
      <trkpt lat="28.5094800" lon="-17.8676930">
        <ele>299.0000000</ele>
        <time>2009-02-09T15:05:24Z</time>
      </trkpt>
      <trkpt lat="28.5101880" lon="-17.8673070">
        <ele>294.0000000</ele>
        <time>2009-02-09T15:05:56Z</time>
      </trkpt>
      <trkpt lat="28.5112950" lon="-17.8672050">
        <ele>287.0000000</ele>
        <time>2009-02-09T15:06:40Z</time>
      </trkpt>
      <trkpt lat="28.5116050" lon="-17.8674600">
        <ele>283.0000000</ele>
        <time>2009-02-09T15:06:55Z</time>
      </trkpt>
      <trkpt lat="28.5117220" lon="-17.8682630">
        <ele>278.0000000</ele>
        <time>2009-02-09T15:07:23Z</time>
      </trkpt>
      <trkpt lat="28.5114580" lon="-17.8686050">
        <ele>278.0000000</ele>
        <time>2009-02-09T15:07:39Z</time>
      </trkpt>
      <trkpt lat="28.5108950" lon="-17.8686330">
        <ele>276.0000000</ele>
        <time>2009-02-09T15:08:02Z</time>
      </trkpt>
      <trkpt lat="28.5104300" lon="-17.8684700">
        <ele>274.0000000</ele>
        <time>2009-02-09T15:08:20Z</time>
      </trkpt>
      <trkpt lat="28.5087350" lon="-17.8685650">
        <ele>260.0000000</ele>
        <time>2009-02-09T15:09:26Z</time>
      </trkpt>
      <trkpt lat="28.5051030" lon="-17.8675080">
        <ele>231.0000000</ele>
        <time>2009-02-09T15:11:52Z</time>
      </trkpt>
      <trkpt lat="28.5006780" lon="-17.8668070">
        <ele>189.0000000</ele>
        <time>2009-02-09T15:14:48Z</time>
      </trkpt>
      <trkpt lat="28.5037730" lon="-17.8680820">
        <ele>165.0000000</ele>
        <time>2009-02-09T15:16:59Z</time>
      </trkpt>
      <trkpt lat="28.5082430" lon="-17.8709630">
        <ele>129.0000000</ele>
        <time>2009-02-09T15:20:20Z</time>
      </trkpt>
      <trkpt lat="28.5077980" lon="-17.8715600">
        <ele>121.0000000</ele>
        <time>2009-02-09T15:20:49Z</time>
      </trkpt>
      <trkpt lat="28.5145720" lon="-17.8732230">
        <ele>65.0000000</ele>
        <time>2009-02-09T15:26:36Z</time>
      </trkpt>
      <trkpt lat="28.5143550" lon="-17.8747950">
        <ele>39.0000000</ele>
        <time>2009-02-09T15:27:31Z</time>
      </trkpt>
      <trkpt lat="28.5144870" lon="-17.8751620">
        <ele>35.0000000</ele>
        <time>2009-02-09T15:27:45Z</time>
      </trkpt>
      <trkpt lat="28.5143170" lon="-17.8757080">
        <ele>32.0000000</ele>
        <time>2009-02-09T15:28:05Z</time>
      </trkpt>
      <trkpt lat="28.5142370" lon="-17.8756930">
        <ele>31.0000000</ele>
        <time>2009-02-09T15:28:09Z</time>
      </trkpt>
    </trkseg>
  </trk>

</gpx>
